Historical Weather Data
Okotoks
Hwy 2A and Milligan Dr

Date
ET inches
Rain inches
Temperature °C
Humidity
Avg
Wind kmh
Avg
Solar Wm2
Avg
High
Avg
Low
12/01/2020 0.02 0.00 2.9 -3.4 -11.0 59 0.0 62
12/02/2020 0.01 0.00 13.4 0.4 -6.2 60 0.0 59
12/03/2020 0.02 0.00 18.2 2.4 -5.7 52 0.0 59
12/04/2020 0.02 0.00 13.4 3.6 -3.7 47 0.0 56
12/05/2020 0.02 0.00 12.5 1.4 -6.6 50 0.0 60
12/06/2020 0.02 0.00 14.9 1.4 -6.9 42 0.0 58
12/07/2020 0.01 0.00 12.0 3.7 -3.4 52 0.0 38
12/08/2020 0.01 0.00 12.7 3.1 -2.8 71 0.0 28
12/09/2020 0.01 0.00 2.5 -2.3 -13.6 96 0.0 27
12/10/2020 0.01 0.00 -2.6 -10.0 -14.4 90 0.0 52
12/11/2020 0.00 0.00 -7.3 -10.3 -16.0 96 0.0 17
12/12/2020 0.01 0.00 -5.4 -10.0 -17.7 87 0.0 35
12/13/2020 0.00 0.00 -13.9 -16.4 -17.8 88 0.0 19
12/14/2020 0.01 0.00 -1.5 -10.9 -18.5 85 0.0 42
12/15/2020 0.01 0.00 0.9 -5.5 -12.8 73 0.0 26
12/16/2020 0.01 0.00 3.9 -3.0 -9.5 64 0.0 39
12/17/2020 0.01 0.00 6.8 -0.9 -8.8 69 0.0 37
12/18/2020 0.01 0.00 4.3 -4.1 -13.1 73 0.0 42
12/19/2020 0.01 0.00 5.9 2.4 -2.0 42 0.0 54
12/20/2020 0.01 0.00 5.5 1.2 -5.4 56 0.0 53
12/21/2020 0.00 0.00 -1.0 -4.4 -8.4 81 0.0 19
12/22/2020 0.01 0.00 -3.6 -7.8 -17.5 91 0.0 33
12/23/2020 0.01 0.00 1.4 -10.6 -21.4 78 0.0 40
12/24/2020 0.02 0.00 8.4 1.9 -3.3 43 0.0 31
12/25/2020 0.01 0.00 2.0 -4.0 -7.4 65 0.0 41
12/26/2020 0.00 0.00 -3.4 -5.6 -8.8 91 0.0 33
12/27/2020 0.00 0.00 -6.8 -10.8 -19.1 93 0.0 17
12/28/2020 0.01 0.00 -5.8 -11.7 -19.2 87 0.0 25
12/29/2020 0.01 0.00 -8.3 -13.2 -18.7 77 0.0 50
12/30/2020 0.01 0.00 -3.0 -8.3 -14.1 74 0.0 41
12/31/2020 0.01 0.00 0.5 -7.2 -13.4 77 0.0 50